Monte Hermoso, Argentina
Current Conditions -  °F | °C
As of 6:00 AM on Sunday 26 Oct 2014 (Local Time) from SAZM Reporting Station
Scattered Clouds Scattered Clouds  
Wind Chill: 63°   Ceiling: Unl
Heat Index: 63°   Visibility: 4mi
Dew Point: 59°   Wind: 10mph
Humidity: 88%   Direction: 320°NW
Pressure: 29.8"   Gusts: NA
Location:  38.93°S, 61.35°W
Report Text: SAZM 260900Z 32009KT 7000 FEW025 SCT10017/15 Q1009
Loading
Personal Weather Stations






























Interactive Weather Map
Tropical Storm Tracking
New forecast layout! Learn more

10-Day Weather Forecast

Advertisements
Track Severe Weather on mobile